sensor_id;sensor_type;location;lat;lon;timestamp;temperature;humidity
3705;DHT22;1868;48.918;9.438;2023-04-06T00:00:12;0.40;97.40
3705;DHT22;1868;48.918;9.438;2023-04-06T00:02:44;0.40;97.40
3705;DHT22;1868;48.918;9.438;2023-04-06T00:05:16;0.40;97.40
3705;DHT22;1868;48.918;9.438;2023-04-06T00:07:45;0.40;97.40
3705;DHT22;1868;48.918;9.438;2023-04-06T00:10:15;0.40;97.40
3705;DHT22;1868;48.918;9.438;2023-04-06T00:12:49;0.40;97.40
3705;DHT22;1868;48.918;9.438;2023-04-06T00:15:19;0.30;97.40
3705;DHT22;1868;48.918;9.438;2023-04-06T00:17:50;0.30;97.40
3705;DHT22;1868;48.918;9.438;2023-04-06T00:20:25;0.30;97.40
3705;DHT22;1868;48.918;9.438;2023-04-06T00:22:55;0.30;97.40
3705;DHT22;1868;48.918;9.438;2023-04-06T00:25:25;0.20;97.40
3705;DHT22;1868;48.918;9.438;2023-04-06T00:27:58;0.20;97.40
3705;DHT22;1868;48.918;9.438;2023-04-06T00:30:28;0.20;97.40
3705;DHT22;1868;48.918;9.438;2023-04-06T00:32:59;0.20;97.40
3705;DHT22;1868;48.918;9.438;2023-04-06T00:35:33;0.10;97.40
3705;DHT22;1868;48.918;9.438;2023-04-06T00:38:02;0.10;97.40
3705;DHT22;1868;48.918;9.438;2023-04-06T00:40:33;0.10;97.40
3705;DHT22;1868;48.918;9.438;2023-04-06T00:43:05;0.10;97.40
3705;DHT22;1868;48.918;9.438;2023-04-06T00:45:38;0.10;97.40
3705;DHT22;1868;48.918;9.438;2023-04-06T00:48:08;0.10;97.40
3705;DHT22;1868;48.918;9.438;2023-04-06T00:50:43;0.10;97.40
3705;DHT22;1868;48.918;9.438;2023-04-06T00:53:21;0.10;97.40
3705;DHT22;1868;48.918;9.438;2023-04-06T00:55:51;0.10;97.40
3705;DHT22;1868;48.918;9.438;2023-04-06T00:58:24;0.10;97.40
3705;DHT22;1868;48.918;9.438;2023-04-06T01:01:03;0.00;97.40
3705;DHT22;1868;48.918;9.438;2023-04-06T01:03:33;0.00;97.40
3705;DHT22;1868;48.918;9.438;2023-04-06T01:06:03;-0.10;97.40
3705;DHT22;1868;48.918;9.438;2023-04-06T01:08:37;-0.10;97.40
3705;DHT22;1868;48.918;9.438;2023-04-06T01:11:21;-0.10;97.40
3705;DHT22;1868;48.918;9.438;2023-04-06T01:13:53;-0.10;97.40
3705;DHT22;1868;48.918;9.438;2023-04-06T01:16:27;-0.10;97.40
3705;DHT22;1868;48.918;9.438;2023-04-06T01:19:19;-0.10;97.40
3705;DHT22;1868;48.918;9.438;2023-04-06T01:21:54;-0.10;97.40
3705;DHT22;1868;48.918;9.438;2023-04-06T01:24:31;-0.20;97.40
3705;DHT22;1868;48.918;9.438;2023-04-06T01:27:11;-0.20;97.40
3705;DHT22;1868;48.918;9.438;2023-04-06T01:30:08;-0.20;97.40
3705;DHT22;1868;48.918;9.438;2023-04-06T01:32:48;-0.20;97.40
3705;DHT22;1868;48.918;9.438;2023-04-06T01:35:28;-0.20;97.40
3705;DHT22;1868;48.918;9.438;2023-04-06T01:38:10;-0.20;97.40
3705;DHT22;1868;48.918;9.438;2023-04-06T01:40:47;-0.30;97.40
3705;DHT22;1868;48.918;9.438;2023-04-06T01:43:21;-0.30;97.40
3705;DHT22;1868;48.918;9.438;2023-04-06T01:46:08;-0.30;97.40
3705;DHT22;1868;48.918;9.438;2023-04-06T01:48:41;-0.30;97.40
3705;DHT22;1868;48.918;9.438;2023-04-06T01:51:27;-0.30;97.40
3705;DHT22;1868;48.918;9.438;2023-04-06T01:54:00;-0.30;97.40
3705;DHT22;1868;48.918;9.438;2023-04-06T01:56:48;-0.30;97.40
3705;DHT22;1868;48.918;9.438;2023-04-06T01:59:37;-0.40;97.40
3705;DHT22;1868;48.918;9.438;2023-04-06T02:02:15;-0.40;97.40
3705;DHT22;1868;48.918;9.438;2023-04-06T02:04:54;-0.40;97.40
3705;DHT22;1868;48.918;9.438;2023-04-06T02:07:23;-0.50;97.40
3705;DHT22;1868;48.918;9.438;2023-04-06T02:09:54;-0.60;97.40
3705;DHT22;1868;48.918;9.438;2023-04-06T02:12:36;-0.60;97.40
3705;DHT22;1868;48.918;9.438;2023-04-06T02:15:10;-0.60;97.40
3705;DHT22;1868;48.918;9.438;2023-04-06T02:17:42;-0.60;97.40
3705;DHT22;1868;48.918;9.438;2023-04-06T02:20:14;-0.60;97.40
3705;DHT22;1868;48.918;9.438;2023-04-06T02:22:44;-0.60;97.40
3705;DHT22;1868;48.918;9.438;2023-04-06T02:25:15;-0.60;97.40
3705;DHT22;1868;48.918;9.438;2023-04-06T02:27:46;-0.70;97.40
3705;DHT22;1868;48.918;9.438;2023-04-06T02:30:15;-0.70;97.40
3705;DHT22;1868;48.918;9.438;2023-04-06T02:32:44;-0.70;97.40
3705;DHT22;1868;48.918;9.438;2023-04-06T02:35:15;-0.70;97.40
3705;DHT22;1868;48.918;9.438;2023-04-06T02:37:47;-0.70;97.40
3705;DHT22;1868;48.918;9.438;2023-04-06T02:40:17;-0.70;97.40
3705;DHT22;1868;48.918;9.438;2023-04-06T02:42:49;-0.70;97.40
3705;DHT22;1868;48.918;9.438;2023-04-06T02:45:26;-0.70;97.40
3705;DHT22;1868;48.918;9.438;2023-04-06T02:47:55;-0.70;97.40
3705;DHT22;1868;48.918;9.438;2023-04-06T02:50:27;-0.70;97.40
3705;DHT22;1868;48.918;9.438;2023-04-06T02:53:06;-0.70;97.40
3705;DHT22;1868;48.918;9.438;2023-04-06T02:55:37;-0.70;97.40
3705;DHT22;1868;48.918;9.438;2023-04-06T02:58:11;-0.80;97.40
3705;DHT22;1868;48.918;9.438;2023-04-06T03:00:50;-0.80;97.40
3705;DHT22;1868;48.918;9.438;2023-04-06T03:03:19;-0.80;97.40
3705;DHT22;1868;48.918;9.438;2023-04-06T03:05:51;-0.80;97.40
3705;DHT22;1868;48.918;9.438;2023-04-06T03:08:26;-0.90;97.40
3705;DHT22;1868;48.918;9.438;2023-04-06T03:10:56;-0.90;97.40
3705;DHT22;1868;48.918;9.438;2023-04-06T03:13:36;-0.90;97.40
3705;DHT22;1868;48.918;9.438;2023-04-06T03:16:07;-0.90;97.40
3705;DHT22;1868;48.918;9.438;2023-04-06T03:18:37;-0.90;97.40
3705;DHT22;1868;48.918;9.438;2023-04-06T03:21:06;-1.00;97.40
3705;DHT22;1868;48.918;9.438;2023-04-06T03:23:46;-1.00;97.40
3705;DHT22;1868;48.918;9.438;2023-04-06T03:26:18;-1.00;97.40
3705;DHT22;1868;48.918;9.438;2023-04-06T03:28:54;-1.00;97.40
3705;DHT22;1868;48.918;9.438;2023-04-06T03:31:29;-1.00;97.40
3705;DHT22;1868;48.918;9.438;2023-04-06T03:34:33;-1.00;97.40
3705;DHT22;1868;48.918;9.438;2023-04-06T03:37:03;-1.00;97.40
3705;DHT22;1868;48.918;9.438;2023-04-06T03:39:41;-1.00;97.40
3705;DHT22;1868;48.918;9.438;2023-04-06T03:42:20;-1.00;97.40
3705;DHT22;1868;48.918;9.438;2023-04-06T03:44:59;-1.00;97.40
3705;DHT22;1868;48.918;9.438;2023-04-06T03:47:30;-1.00;97.40
3705;DHT22;1868;48.918;9.438;2023-04-06T03:50:06;-1.00;97.40
3705;DHT22;1868;48.918;9.438;2023-04-06T03:52:36;-1.00;97.40
3705;DHT22;1868;48.918;9.438;2023-04-06T03:55:08;-1.10;97.40
3705;DHT22;1868;48.918;9.438;2023-04-06T03:57:38;-1.10;97.40
3705;DHT22;1868;48.918;9.438;2023-04-06T04:00:13;-1.10;97.40
3705;DHT22;1868;48.918;9.438;2023-04-06T04:02:44;-1.20;97.40
3705;DHT22;1868;48.918;9.438;2023-04-06T04:05:13;-1.20;97.40
3705;DHT22;1868;48.918;9.438;2023-04-06T04:07:45;-1.20;97.40
3705;DHT22;1868;48.918;9.438;2023-04-06T04:10:16;-1.20;97.40
3705;DHT22;1868;48.918;9.438;2023-04-06T04:12:48;-1.20;97.40
3705;DHT22;1868;48.918;9.438;2023-04-06T04:15:22;-1.20;97.40
3705;DHT22;1868;48.918;9.438;2023-04-06T04:17:51;-1.20;97.40
3705;DHT22;1868;48.918;9.438;2023-04-06T04:20:20;-1.20;97.40
3705;DHT22;1868;48.918;9.438;2023-04-06T04:22:50;-1.30;97.40
3705;DHT22;1868;48.918;9.438;2023-04-06T04:25:20;-1.30;97.40
3705;DHT22;1868;48.918;9.438;2023-04-06T04:27:49;-1.30;97.40
3705;DHT22;1868;48.918;9.438;2023-04-06T04:30:22;-1.20;97.40
3705;DHT22;1868;48.918;9.438;2023-04-06T04:32:51;-1.30;97.40
3705;DHT22;1868;48.918;9.438;2023-04-06T04:35:22;-1.30;97.40
3705;DHT22;1868;48.918;9.438;2023-04-06T04:37:51;-1.30;97.40
3705;DHT22;1868;48.918;9.438;2023-04-06T04:40:20;-1.30;97.40
3705;DHT22;1868;48.918;9.438;2023-04-06T04:42:55;-1.30;97.40
3705;DHT22;1868;48.918;9.438;2023-04-06T04:45:32;-1.30;97.40
3705;DHT22;1868;48.918;9.438;2023-04-06T04:48:14;-1.40;97.40
3705;DHT22;1868;48.918;9.438;2023-04-06T04:50:51;-1.40;97.40
3705;DHT22;1868;48.918;9.438;2023-04-06T04:53:26;-1.30;97.40
3705;DHT22;1868;48.918;9.438;2023-04-06T04:56:01;-1.30;97.40
3705;DHT22;1868;48.918;9.438;2023-04-06T04:58:32;-1.30;97.40
3705;DHT22;1868;48.918;9.438;2023-04-06T05:01:05;-1.30;97.40
3705;DHT22;1868;48.918;9.438;2023-04-06T05:03:37;-1.30;97.40
3705;DHT22;1868;48.918;9.438;2023-04-06T05:06:13;-1.40;97.40
3705;DHT22;1868;48.918;9.438;2023-04-06T05:08:43;-1.30;97.40
3705;DHT22;1868;48.918;9.438;2023-04-06T05:11:16;-1.30;97.40
3705;DHT22;1868;48.918;9.438;2023-04-06T05:13:53;-1.30;97.40
3705;DHT22;1868;48.918;9.438;2023-04-06T05:16:27;-1.30;97.40
3705;DHT22;1868;48.918;9.438;2023-04-06T05:19:00;-1.30;97.40
3705;DHT22;1868;48.918;9.438;2023-04-06T05:21:38;-1.20;97.40
3705;DHT22;1868;48.918;9.438;2023-04-06T05:24:09;-1.20;97.40
3705;DHT22;1868;48.918;9.438;2023-04-06T05:26:41;-1.20;97.40
3705;DHT22;1868;48.918;9.438;2023-04-06T05:29:18;-1.10;97.40
3705;DHT22;1868;48.918;9.438;2023-04-06T05:31:52;-1.10;97.40
3705;DHT22;1868;48.918;9.438;2023-04-06T05:34:22;-1.00;97.40
3705;DHT22;1868;48.918;9.438;2023-04-06T05:36:52;-0.90;97.40
3705;DHT22;1868;48.918;9.438;2023-04-06T05:39:24;-0.90;97.40
3705;DHT22;1868;48.918;9.438;2023-04-06T05:41:54;-0.80;97.40
3705;DHT22;1868;48.918;9.438;2023-04-06T05:44:53;-0.70;97.40
3705;DHT22;1868;48.918;9.438;2023-04-06T05:47:26;-0.60;97.40
3705;DHT22;1868;48.918;9.438;2023-04-06T05:50:04;-0.50;97.40
3705;DHT22;1868;48.918;9.438;2023-04-06T05:52:37;-0.40;97.40
3705;DHT22;1868;48.918;9.438;2023-04-06T05:55:12;-0.30;97.40
3705;DHT22;1868;48.918;9.438;2023-04-06T05:57:49;-0.10;97.40
3705;DHT22;1868;48.918;9.438;2023-04-06T06:00:23;-0.10;97.40
3705;DHT22;1868;48.918;9.438;2023-04-06T06:03:05;0.00;97.40
3705;DHT22;1868;48.918;9.438;2023-04-06T06:05:38;0.10;97.40
3705;DHT22;1868;48.918;9.438;2023-04-06T06:08:13;0.20;97.40
3705;DHT22;1868;48.918;9.438;2023-04-06T06:10:44;0.40;97.40
3705;DHT22;1868;48.918;9.438;2023-04-06T06:13:20;0.70;97.40
3705;DHT22;1868;48.918;9.438;2023-04-06T06:15:50;1.10;97.40
3705;DHT22;1868;48.918;9.438;2023-04-06T06:18:24;1.60;97.40
3705;DHT22;1868;48.918;9.438;2023-04-06T06:20:55;2.10;97.40
3705;DHT22;1868;48.918;9.438;2023-04-06T06:23:26;2.50;97.40
3705;DHT22;1868;48.918;9.438;2023-04-06T06:25:55;2.80;97.40
3705;DHT22;1868;48.918;9.438;2023-04-06T06:28:27;3.00;97.40
3705;DHT22;1868;48.918;9.438;2023-04-06T06:30:57;3.00;97.40
3705;DHT22;1868;48.918;9.438;2023-04-06T06:33:28;3.10;97.40
3705;DHT22;1868;48.918;9.438;2023-04-06T06:35:58;3.30;97.40
3705;DHT22;1868;48.918;9.438;2023-04-06T06:38:29;3.50;97.40
3705;DHT22;1868;48.918;9.438;2023-04-06T06:40:58;3.90;97.40
3705;DHT22;1868;48.918;9.438;2023-04-06T06:43:31;4.40;97.40
3705;DHT22;1868;48.918;9.438;2023-04-06T06:46:07;4.90;97.40
3705;DHT22;1868;48.918;9.438;2023-04-06T06:48:37;5.50;97.40
3705;DHT22;1868;48.918;9.438;2023-04-06T06:51:07;6.10;97.40
3705;DHT22;1868;48.918;9.438;2023-04-06T06:53:39;6.70;97.40
3705;DHT22;1868;48.918;9.438;2023-04-06T06:56:08;7.20;97.10
3705;DHT22;1868;48.918;9.438;2023-04-06T06:58:37;7.80;96.30
3705;DHT22;1868;48.918;9.438;2023-04-06T07:01:07;8.30;94.50
3705;DHT22;1868;48.918;9.438;2023-04-06T07:03:39;8.90;94.50
3705;DHT22;1868;48.918;9.438;2023-04-06T07:06:08;9.50;93.10
3705;DHT22;1868;48.918;9.438;2023-04-06T07:08:39;10.10;92.70
3705;DHT22;1868;48.918;9.438;2023-04-06T07:11:09;10.60;90.40
3705;DHT22;1868;48.918;9.438;2023-04-06T07:13:40;11.20;90.10
3705;DHT22;1868;48.918;9.438;2023-04-06T07:16:10;11.80;89.40
3705;DHT22;1868;48.918;9.438;2023-04-06T07:18:40;12.50;86.40
3705;DHT22;1868;48.918;9.438;2023-04-06T07:21:09;13.10;83.80
3705;DHT22;1868;48.918;9.438;2023-04-06T07:23:39;13.70;81.90
3705;DHT22;1868;48.918;9.438;2023-04-06T07:26:08;14.20;75.90
3705;DHT22;1868;48.918;9.438;2023-04-06T07:28:37;14.60;74.60
3705;DHT22;1868;48.918;9.438;2023-04-06T07:31:07;15.10;72.00
3705;DHT22;1868;48.918;9.438;2023-04-06T07:33:36;15.80;71.80
3705;DHT22;1868;48.918;9.438;2023-04-06T07:36:06;16.40;69.20
3705;DHT22;1868;48.918;9.438;2023-04-06T07:38:36;16.80;60.90
3705;DHT22;1868;48.918;9.438;2023-04-06T07:41:07;17.30;57.50
3705;DHT22;1868;48.918;9.438;2023-04-06T07:43:38;17.60;54.90
3705;DHT22;1868;48.918;9.438;2023-04-06T07:46:09;18.00;54.00
3705;DHT22;1868;48.918;9.438;2023-04-06T07:48:40;18.30;50.50
3705;DHT22;1868;48.918;9.438;2023-04-06T07:51:10;18.40;49.10
3705;DHT22;1868;48.918;9.438;2023-04-06T07:53:43;18.80;48.20
3705;DHT22;1868;48.918;9.438;2023-04-06T07:56:12;18.90;46.70
3705;DHT22;1868;48.918;9.438;2023-04-06T07:58:42;19.10;45.90
3705;DHT22;1868;48.918;9.438;2023-04-06T08:01:11;19.40;45.80
3705;DHT22;1868;48.918;9.438;2023-04-06T08:03:41;19.60;45.50
3705;DHT22;1868;48.918;9.438;2023-04-06T08:06:13;19.80;46.10
3705;DHT22;1868;48.918;9.438;2023-04-06T08:08:43;20.10;41.10
3705;DHT22;1868;48.918;9.438;2023-04-06T08:11:11;20.60;41.80
3705;DHT22;1868;48.918;9.438;2023-04-06T08:13:40;21.10;41.70
3705;DHT22;1868;48.918;9.438;2023-04-06T08:16:10;21.60;39.50
3705;DHT22;1868;48.918;9.438;2023-04-06T08:18:39;22.00;39.80
3705;DHT22;1868;48.918;9.438;2023-04-06T08:21:08;22.40;39.20
3705;DHT22;1868;48.918;9.438;2023-04-06T08:23:39;22.70;34.80
3705;DHT22;1868;48.918;9.438;2023-04-06T08:26:07;22.70;37.30
3705;DHT22;1868;48.918;9.438;2023-04-06T08:28:38;23.10;37.60
3705;DHT22;1868;48.918;9.438;2023-04-06T08:31:06;23.40;36.30
3705;DHT22;1868;48.918;9.438;2023-04-06T08:33:35;24.00;37.60
3705;DHT22;1868;48.918;9.438;2023-04-06T08:36:10;24.40;32.40
3705;DHT22;1868;48.918;9.438;2023-04-06T08:38:41;24.50;34.10
3705;DHT22;1868;48.918;9.438;2023-04-06T08:41:12;25.00;30.90
3705;DHT22;1868;48.918;9.438;2023-04-06T08:43:46;25.30;29.30
3705;DHT22;1868;48.918;9.438;2023-04-06T08:46:17;25.70;30.90
3705;DHT22;1868;48.918;9.438;2023-04-06T08:48:47;26.20;29.70
3705;DHT22;1868;48.918;9.438;2023-04-06T08:51:17;26.40;28.00
3705;DHT22;1868;48.918;9.438;2023-04-06T08:53:49;26.50;26.40
3705;DHT22;1868;48.918;9.438;2023-04-06T08:56:23;26.30;27.50
3705;DHT22;1868;48.918;9.438;2023-04-06T08:58:53;25.90;24.90
3705;DHT22;1868;48.918;9.438;2023-04-06T09:01:26;26.00;25.40
3705;DHT22;1868;48.918;9.438;2023-04-06T09:03:57;26.20;26.40
3705;DHT22;1868;48.918;9.438;2023-04-06T09:06:27;25.70;25.50
3705;DHT22;1868;48.918;9.438;2023-04-06T09:08:59;25.30;27.30
3705;DHT22;1868;48.918;9.438;2023-04-06T09:11:27;26.30;27.80
3705;DHT22;1868;48.918;9.438;2023-04-06T09:13:57;26.50;24.60
3705;DHT22;1868;48.918;9.438;2023-04-06T09:16:25;25.20;25.90
3705;DHT22;1868;48.918;9.438;2023-04-06T09:18:54;25.90;25.10
3705;DHT22;1868;48.918;9.438;2023-04-06T09:21:33;26.90;25.30
3705;DHT22;1868;48.918;9.438;2023-04-06T09:24:05;27.60;24.50
3705;DHT22;1868;48.918;9.438;2023-04-06T09:26:45;28.10;23.90
3705;DHT22;1868;48.918;9.438;2023-04-06T09:29:24;28.40;24.10
3705;DHT22;1868;48.918;9.438;2023-04-06T09:32:02;29.20;24.30
3705;DHT22;1868;48.918;9.438;2023-04-06T09:34:33;29.60;23.30
3705;DHT22;1868;48.918;9.438;2023-04-06T09:37:12;30.10;23.20
3705;DHT22;1868;48.918;9.438;2023-04-06T09:39:43;29.90;21.60
3705;DHT22;1868;48.918;9.438;2023-04-06T09:42:23;29.10;21.30
3705;DHT22;1868;48.918;9.438;2023-04-06T09:44:54;29.30;23.50
3705;DHT22;1868;48.918;9.438;2023-04-06T09:47:24;29.90;23.10
3705;DHT22;1868;48.918;9.438;2023-04-06T09:49:56;30.20;22.30
3705;DHT22;1868;48.918;9.438;2023-04-06T09:52:27;30.50;21.80
3705;DHT22;1868;48.918;9.438;2023-04-06T09:55:04;30.20;20.50
3705;DHT22;1868;48.918;9.438;2023-04-06T09:57:40;30.10;21.40
3705;DHT22;1868;48.918;9.438;2023-04-06T10:00:16;30.30;21.50
3705;DHT22;1868;48.918;9.438;2023-04-06T10:02:51;30.40;21.10
3705;DHT22;1868;48.918;9.438;2023-04-06T10:05:35;30.50;20.30
3705;DHT22;1868;48.918;9.438;2023-04-06T10:08:07;29.80;19.30
3705;DHT22;1868;48.918;9.438;2023-04-06T10:10:39;28.50;20.80
3705;DHT22;1868;48.918;9.438;2023-04-06T10:13:10;26.80;22.00
3705;DHT22;1868;48.918;9.438;2023-04-06T10:15:40;26.10;22.40
3705;DHT22;1868;48.918;9.438;2023-04-06T10:18:11;25.70;22.80
3705;DHT22;1868;48.918;9.438;2023-04-06T10:20:47;24.90;23.00
3705;DHT22;1868;48.918;9.438;2023-04-06T10:23:21;24.10;24.50
3705;DHT22;1868;48.918;9.438;2023-04-06T10:25:58;23.30;25.20
3705;DHT22;1868;48.918;9.438;2023-04-06T10:28:31;24.10;25.30
3705;DHT22;1868;48.918;9.438;2023-04-06T10:31:04;23.60;24.00
3705;DHT22;1868;48.918;9.438;2023-04-06T10:33:34;22.60;24.60
3705;DHT22;1868;48.918;9.438;2023-04-06T10:36:10;21.80;26.10
3705;DHT22;1868;48.918;9.438;2023-04-06T10:38:40;21.90;26.90
3705;DHT22;1868;48.918;9.438;2023-04-06T10:41:17;23.20;26.00
3705;DHT22;1868;48.918;9.438;2023-04-06T10:43:55;24.00;24.50
3705;DHT22;1868;48.918;9.438;2023-04-06T10:46:30;25.00;25.30
3705;DHT22;1868;48.918;9.438;2023-04-06T10:49:10;26.10;24.10
3705;DHT22;1868;48.918;9.438;2023-04-06T10:51:40;26.80;22.70
3705;DHT22;1868;48.918;9.438;2023-04-06T10:54:11;27.20;22.40
3705;DHT22;1868;48.918;9.438;2023-04-06T10:56:42;27.50;22.20
3705;DHT22;1868;48.918;9.438;2023-04-06T10:59:10;27.60;21.00
3705;DHT22;1868;48.918;9.438;2023-04-06T11:01:44;28.10;20.30
3705;DHT22;1868;48.918;9.438;2023-04-06T11:04:16;28.50;20.80
3705;DHT22;1868;48.918;9.438;2023-04-06T11:06:47;28.80;21.10
3705;DHT22;1868;48.918;9.438;2023-04-06T11:09:24;29.30;20.80
3705;DHT22;1868;48.918;9.438;2023-04-06T11:11:55;29.20;21.20
3705;DHT22;1868;48.918;9.438;2023-04-06T11:14:24;28.90;19.30
3705;DHT22;1868;48.918;9.438;2023-04-06T11:16:54;28.70;20.80
3705;DHT22;1868;48.918;9.438;2023-04-06T11:19:23;29.10;20.80
3705;DHT22;1868;48.918;9.438;2023-04-06T11:21:52;29.30;19.60
3705;DHT22;1868;48.918;9.438;2023-04-06T11:24:24;29.60;20.60
3705;DHT22;1868;48.918;9.438;2023-04-06T11:26:56;29.30;19.60
3705;DHT22;1868;48.918;9.438;2023-04-06T11:29:30;29.60;20.40
3705;DHT22;1868;48.918;9.438;2023-04-06T11:32:00;29.80;19.60
3705;DHT22;1868;48.918;9.438;2023-04-06T11:34:32;29.90;20.40
3705;DHT22;1868;48.918;9.438;2023-04-06T11:37:04;29.60;20.10
3705;DHT22;1868;48.918;9.438;2023-04-06T11:39:38;29.90;20.80
3705;DHT22;1868;48.918;9.438;2023-04-06T11:42:10;29.80;19.80
3705;DHT22;1868;48.918;9.438;2023-04-06T11:44:42;30.10;18.50
3705;DHT22;1868;48.918;9.438;2023-04-06T11:47:13;30.40;18.80
3705;DHT22;1868;48.918;9.438;2023-04-06T11:49:43;30.10;18.40
3705;DHT22;1868;48.918;9.438;2023-04-06T11:52:17;29.20;18.10
3705;DHT22;1868;48.918;9.438;2023-04-06T11:54:48;29.20;18.60
3705;DHT22;1868;48.918;9.438;2023-04-06T11:57:20;29.80;19.10
3705;DHT22;1868;48.918;9.438;2023-04-06T11:59:50;30.10;18.20
3705;DHT22;1868;48.918;9.438;2023-04-06T12:02:20;30.20;19.00
3705;DHT22;1868;48.918;9.438;2023-04-06T12:04:49;30.60;17.70
3705;DHT22;1868;48.918;9.438;2023-04-06T12:07:19;31.20;17.90
3705;DHT22;1868;48.918;9.438;2023-04-06T12:09:48;31.40;16.90
3705;DHT22;1868;48.918;9.438;2023-04-06T12:12:18;31.60;17.20
3705;DHT22;1868;48.918;9.438;2023-04-06T12:14:47;31.00;16.20
3705;DHT22;1868;48.918;9.438;2023-04-06T12:17:16;30.60;17.40
3705;DHT22;1868;48.918;9.438;2023-04-06T12:19:47;29.90;17.70
3705;DHT22;1868;48.918;9.438;2023-04-06T12:22:17;29.30;19.10
3705;DHT22;1868;48.918;9.438;2023-04-06T12:24:47;28.50;17.90
3705;DHT22;1868;48.918;9.438;2023-04-06T12:27:15;28.10;18.60
3705;DHT22;1868;48.918;9.438;2023-04-06T12:29:47;28.20;18.00
3705;DHT22;1868;48.918;9.438;2023-04-06T12:32:16;28.60;18.60
3705;DHT22;1868;48.918;9.438;2023-04-06T12:34:44;27.30;17.20
3705;DHT22;1868;48.918;9.438;2023-04-06T12:37:13;26.60;17.90
3705;DHT22;1868;48.918;9.438;2023-04-06T12:39:42;26.50;20.00
3705;DHT22;1868;48.918;9.438;2023-04-06T12:42:12;27.10;20.00
3705;DHT22;1868;48.918;9.438;2023-04-06T12:44:43;27.00;19.60
3705;DHT22;1868;48.918;9.438;2023-04-06T12:47:13;27.20;19.60
3705;DHT22;1868;48.918;9.438;2023-04-06T12:49:43;27.80;18.90
3705;DHT22;1868;48.918;9.438;2023-04-06T12:52:12;27.40;19.30
3705;DHT22;1868;48.918;9.438;2023-04-06T12:54:42;27.90;19.50
3705;DHT22;1868;48.918;9.438;2023-04-06T12:57:12;28.50;19.00
3705;DHT22;1868;48.918;9.438;2023-04-06T12:59:43;28.70;18.80
3705;DHT22;1868;48.918;9.438;2023-04-06T13:02:13;28.70;18.10
3705;DHT22;1868;48.918;9.438;2023-04-06T13:04:43;28.50;18.20
3705;DHT22;1868;48.918;9.438;2023-04-06T13:07:12;28.00;18.60
3705;DHT22;1868;48.918;9.438;2023-04-06T13:09:41;28.50;18.80
3705;DHT22;1868;48.918;9.438;2023-04-06T13:12:10;29.00;18.00
3705;DHT22;1868;48.918;9.438;2023-04-06T13:14:39;28.70;17.90
3705;DHT22;1868;48.918;9.438;2023-04-06T13:17:08;29.00;17.90
3705;DHT22;1868;48.918;9.438;2023-04-06T13:19:39;29.00;18.20
3705;DHT22;1868;48.918;9.438;2023-04-06T13:22:08;29.20;17.40
3705;DHT22;1868;48.918;9.438;2023-04-06T13:24:37;29.30;17.60
3705;DHT22;1868;48.918;9.438;2023-04-06T13:27:05;28.30;16.10
3705;DHT22;1868;48.918;9.438;2023-04-06T13:29:34;28.40;17.60
3705;DHT22;1868;48.918;9.438;2023-04-06T13:32:04;27.90;16.90
3705;DHT22;1868;48.918;9.438;2023-04-06T13:34:34;28.00;16.90
3705;DHT22;1868;48.918;9.438;2023-04-06T13:37:05;28.10;18.10
3705;DHT22;1868;48.918;9.438;2023-04-06T13:39:34;27.80;17.70
3705;DHT22;1868;48.918;9.438;2023-04-06T13:42:03;27.50;17.80
3705;DHT22;1868;48.918;9.438;2023-04-06T13:44:32;27.20;18.20
3705;DHT22;1868;48.918;9.438;2023-04-06T13:47:01;26.60;18.30
3705;DHT22;1868;48.918;9.438;2023-04-06T13:49:35;26.40;18.30
3705;DHT22;1868;48.918;9.438;2023-04-06T13:52:06;26.50;18.80
3705;DHT22;1868;48.918;9.438;2023-04-06T13:54:37;25.70;18.80
3705;DHT22;1868;48.918;9.438;2023-04-06T13:57:06;25.30;18.50
3705;DHT22;1868;48.918;9.438;2023-04-06T13:59:35;24.80;19.60
3705;DHT22;1868;48.918;9.438;2023-04-06T14:02:05;24.10;20.30
3705;DHT22;1868;48.918;9.438;2023-04-06T14:04:37;24.10;19.80
3705;DHT22;1868;48.918;9.438;2023-04-06T14:07:07;23.80;19.30
3705;DHT22;1868;48.918;9.438;2023-04-06T14:09:37;23.50;19.30
3705;DHT22;1868;48.918;9.438;2023-04-06T14:12:07;23.20;19.10
3705;DHT22;1868;48.918;9.438;2023-04-06T14:14:36;23.00;21.10
3705;DHT22;1868;48.918;9.438;2023-04-06T14:17:05;22.80;21.10
3705;DHT22;1868;48.918;9.438;2023-04-06T14:19:33;22.50;21.80
3705;DHT22;1868;48.918;9.438;2023-04-06T14:22:02;22.30;21.90
3705;DHT22;1868;48.918;9.438;2023-04-06T14:24:33;22.00;21.80
3705;DHT22;1868;48.918;9.438;2023-04-06T14:27:02;21.90;20.90
3705;DHT22;1868;48.918;9.438;2023-04-06T14:29:31;21.40;22.30
3705;DHT22;1868;48.918;9.438;2023-04-06T14:32:00;21.10;22.40
3705;DHT22;1868;48.918;9.438;2023-04-06T14:34:29;21.00;22.00
3705;DHT22;1868;48.918;9.438;2023-04-06T14:36:58;20.60;24.30
3705;DHT22;1868;48.918;9.438;2023-04-06T14:39:28;20.00;24.80
3705;DHT22;1868;48.918;9.438;2023-04-06T14:41:59;19.40;24.50
3705;DHT22;1868;48.918;9.438;2023-04-06T14:44:29;19.20;24.90
3705;DHT22;1868;48.918;9.438;2023-04-06T14:47:02;19.20;24.30
3705;DHT22;1868;48.918;9.438;2023-04-06T14:49:32;19.20;24.50
3705;DHT22;1868;48.918;9.438;2023-04-06T14:52:01;19.10;24.90
3705;DHT22;1868;48.918;9.438;2023-04-06T14:54:31;19.20;25.00
3705;DHT22;1868;48.918;9.438;2023-04-06T14:57:01;19.30;25.50
3705;DHT22;1868;48.918;9.438;2023-04-06T14:59:32;19.10;24.80
3705;DHT22;1868;48.918;9.438;2023-04-06T15:02:06;18.90;23.90
3705;DHT22;1868;48.918;9.438;2023-04-06T15:04:35;18.80;26.10
3705;DHT22;1868;48.918;9.438;2023-04-06T15:07:04;18.50;26.50
3705;DHT22;1868;48.918;9.438;2023-04-06T15:09:32;18.40;26.50
3705;DHT22;1868;48.918;9.438;2023-04-06T15:12:03;18.30;25.40
3705;DHT22;1868;48.918;9.438;2023-04-06T15:14:32;18.10;26.30
3705;DHT22;1868;48.918;9.438;2023-04-06T15:17:01;17.90;26.60
3705;DHT22;1868;48.918;9.438;2023-04-06T15:19:29;17.80;25.90
3705;DHT22;1868;48.918;9.438;2023-04-06T15:21:58;17.90;26.80
3705;DHT22;1868;48.918;9.438;2023-04-06T15:24:27;18.10;26.60
3705;DHT22;1868;48.918;9.438;2023-04-06T15:26:55;18.20;27.40
3705;DHT22;1868;48.918;9.438;2023-04-06T15:29:26;18.10;26.50
3705;DHT22;1868;48.918;9.438;2023-04-06T15:31:55;17.90;25.00
3705;DHT22;1868;48.918;9.438;2023-04-06T15:34:24;17.90;24.90
3705;DHT22;1868;48.918;9.438;2023-04-06T15:37:00;17.80;24.80
3705;DHT22;1868;48.918;9.438;2023-04-06T15:39:31;17.80;24.90
3705;DHT22;1868;48.918;9.438;2023-04-06T15:42:00;17.90;25.90
3705;DHT22;1868;48.918;9.438;2023-04-06T15:44:33;18.00;26.80
3705;DHT22;1868;48.918;9.438;2023-04-06T15:47:02;18.10;26.50
3705;DHT22;1868;48.918;9.438;2023-04-06T15:49:32;18.00;26.90
3705;DHT22;1868;48.918;9.438;2023-04-06T15:52:04;17.80;27.80
3705;DHT22;1868;48.918;9.438;2023-04-06T15:54:33;17.60;26.50
3705;DHT22;1868;48.918;9.438;2023-04-06T15:57:07;17.40;27.50
3705;DHT22;1868;48.918;9.438;2023-04-06T15:59:38;17.20;28.00
3705;DHT22;1868;48.918;9.438;2023-04-06T16:02:06;16.90;28.00
3705;DHT22;1868;48.918;9.438;2023-04-06T16:04:35;16.70;31.60
3705;DHT22;1868;48.918;9.438;2023-04-06T16:07:05;16.50;31.60
3705;DHT22;1868;48.918;9.438;2023-04-06T16:09:35;16.30;30.90
3705;DHT22;1868;48.918;9.438;2023-04-06T16:12:05;16.10;31.00
3705;DHT22;1868;48.918;9.438;2023-04-06T16:14:36;15.90;32.80
3705;DHT22;1868;48.918;9.438;2023-04-06T16:17:06;15.70;32.40
3705;DHT22;1868;48.918;9.438;2023-04-06T16:19:35;15.60;32.80
3705;DHT22;1868;48.918;9.438;2023-04-06T16:22:04;15.40;33.10
3705;DHT22;1868;48.918;9.438;2023-04-06T16:24:33;15.40;33.90
3705;DHT22;1868;48.918;9.438;2023-04-06T16:27:02;15.30;33.60
3705;DHT22;1868;48.918;9.438;2023-04-06T16:29:34;15.10;33.70
3705;DHT22;1868;48.918;9.438;2023-04-06T16:32:04;14.90;35.60
3705;DHT22;1868;48.918;9.438;2023-04-06T16:34:37;14.90;35.30